createdAt,value
2019-03-26T00:00:49.174Z,814.99
2019-03-26T00:01:49.173Z,815.05
2019-03-26T00:02:49.172Z,815.05
2019-03-26T00:03:49.175Z,815.09
2019-03-26T00:04:49.184Z,815.02
2019-03-26T00:05:49.184Z,815.01
2019-03-26T00:06:49.185Z,814.98
2019-03-26T00:07:49.195Z,814.97
2019-03-26T00:08:49.194Z,815.00
2019-03-26T00:09:49.200Z,815.01
2019-03-26T00:10:49.198Z,815.03
2019-03-26T00:11:49.208Z,815.04
2019-03-26T00:12:49.211Z,815.08
2019-03-26T00:13:49.215Z,815.16
2019-03-26T00:14:49.219Z,815.19
2019-03-26T00:15:49.217Z,815.13
2019-03-26T00:16:49.224Z,814.99
2019-03-26T00:17:49.227Z,814.86
2019-03-26T00:18:49.231Z,814.85
2019-03-26T00:19:49.230Z,814.90
2019-03-26T00:20:49.233Z,815.04
2019-03-26T00:21:49.237Z,815.11
2019-03-26T00:22:49.243Z,815.15
2019-03-26T00:23:49.245Z,815.15
2019-03-26T00:24:49.249Z,815.14
2019-03-26T00:25:49.260Z,815.11
2019-03-26T00:26:49.253Z,815.08
2019-03-26T00:27:49.258Z,815.01
2019-03-26T00:28:49.262Z,814.98
2019-03-26T00:29:49.264Z,814.95
2019-03-26T00:30:49.272Z,814.92
2019-03-26T00:31:49.274Z,815.00
2019-03-26T00:32:49.273Z,815.05
2019-03-26T00:33:49.278Z,815.05
2019-03-26T00:34:49.283Z,815.02
2019-03-26T00:35:49.320Z,815.00
2019-03-26T00:36:49.299Z,814.91
2019-03-26T00:37:49.293Z,814.82
2019-03-26T00:38:49.423Z,814.95
2019-03-26T00:39:49.300Z,815.12
2019-03-26T00:40:49.303Z,815.13
2019-03-26T00:41:49.306Z,815.09
2019-03-26T00:42:49.305Z,815.02
2019-03-26T00:43:49.314Z,814.92
2019-03-26T00:44:49.315Z,814.95
2019-03-26T00:45:49.319Z,815.05
2019-03-26T00:46:49.320Z,815.09
2019-03-26T00:47:49.320Z,815.11
2019-03-26T00:48:49.324Z,815.14
2019-03-26T00:49:49.330Z,815.12
2019-03-26T00:50:49.335Z,815.10
2019-03-26T00:51:49.334Z,815.03
2019-03-26T00:52:49.349Z,815.02
2019-03-26T00:53:49.344Z,814.84
2019-03-26T00:54:49.340Z,814.74
2019-03-26T00:55:49.361Z,814.79
2019-03-26T00:56:49.353Z,814.92
2019-03-26T00:57:49.358Z,814.98
2019-03-26T00:58:49.354Z,815.07
2019-03-26T00:59:49.355Z,815.11
2019-03-26T01:00:49.360Z,815.10
2019-03-26T01:01:49.365Z,814.95
2019-03-26T01:02:49.382Z,814.91
2019-03-26T01:03:49.369Z,814.82
2019-03-26T01:04:49.375Z,814.90
2019-03-26T01:05:49.373Z,814.92
2019-03-26T01:06:49.379Z,814.97
2019-03-26T01:07:49.384Z,814.97
2019-03-26T01:08:49.384Z,814.97
2019-03-26T01:09:49.386Z,814.99
2019-03-26T01:10:49.396Z,815.04
2019-03-26T01:11:49.389Z,815.00
2019-03-26T01:12:49.397Z,814.90
2019-03-26T01:13:49.399Z,814.83
2019-03-26T01:14:49.396Z,814.88
2019-03-26T01:15:49.404Z,814.97
2019-03-26T01:16:49.405Z,815.02
2019-03-26T01:17:49.410Z,815.02
2019-03-26T01:18:49.411Z,814.98
2019-03-26T01:19:49.416Z,814.98
2019-03-26T01:20:49.422Z,814.99
2019-03-26T01:21:49.418Z,815.01
2019-03-26T01:22:49.423Z,814.89
2019-03-26T01:23:49.428Z,814.91
2019-03-26T01:24:49.430Z,814.81
2019-03-26T01:25:49.438Z,814.81
2019-03-26T01:26:49.434Z,814.79
2019-03-26T01:27:49.442Z,814.87
2019-03-26T01:28:49.441Z,814.96
2019-03-26T01:29:49.443Z,815.02
2019-03-26T01:30:49.449Z,815.08
2019-03-26T01:31:49.446Z,815.02
2019-03-26T01:32:49.453Z,814.98
2019-03-26T01:33:49.456Z,815.00
2019-03-26T01:34:49.456Z,815.00
2019-03-26T01:35:49.464Z,815.03
2019-03-26T01:36:49.460Z,815.07
2019-03-26T01:37:49.465Z,815.08
2019-03-26T01:38:49.467Z,815.09
2019-03-26T01:39:49.472Z,815.10
2019-03-26T01:40:49.474Z,815.08
2019-03-26T01:41:49.478Z,815.08
2019-03-26T01:42:49.487Z,815.04
2019-03-26T01:43:49.484Z,815.05
2019-03-26T01:44:49.495Z,815.10
2019-03-26T01:45:49.493Z,815.07
2019-03-26T01:46:49.499Z,815.13
2019-03-26T01:47:49.500Z,815.08
2019-03-26T01:48:49.503Z,815.09
2019-03-26T01:49:49.508Z,815.14
2019-03-26T01:50:49.512Z,815.12
2019-03-26T01:51:49.511Z,815.09
2019-03-26T01:52:49.513Z,815.08
2019-03-26T01:53:49.521Z,815.04
2019-03-26T01:54:49.521Z,815.07
2019-03-26T01:55:49.526Z,815.08
2019-03-26T01:56:49.525Z,815.08
2019-03-26T01:57:49.529Z,815.05
2019-03-26T01:58:49.535Z,815.03
2019-03-26T01:59:49.536Z,815.07
2019-03-26T02:00:49.542Z,815.05
2019-03-26T02:01:49.542Z,815.08
2019-03-26T02:02:49.551Z,815.04
2019-03-26T02:03:49.548Z,815.05
2019-03-26T02:04:59.276Z,815.06
2019-03-26T02:05:49.560Z,814.99
2019-03-26T02:06:49.561Z,814.98
2019-03-26T02:07:49.565Z,814.98
2019-03-26T02:08:49.568Z,814.95
2019-03-26T02:09:49.569Z,814.95
2019-03-26T02:10:49.572Z,814.95
2019-03-26T02:11:49.577Z,814.94
2019-03-26T02:12:49.590Z,814.90
2019-03-26T02:13:49.584Z,814.93
2019-03-26T02:14:49.589Z,814.92
2019-03-26T02:15:49.590Z,814.92
2019-03-26T02:16:49.595Z,814.95
2019-03-26T02:17:49.595Z,814.99
2019-03-26T02:18:49.599Z,814.97
2019-03-26T02:19:49.602Z,815.01
2019-03-26T02:20:49.608Z,814.97
2019-03-26T02:21:49.611Z,814.95
2019-03-26T02:22:49.612Z,815.02
2019-03-26T02:23:49.616Z,815.01
2019-03-26T02:24:49.619Z,815.04
2019-03-26T02:25:49.624Z,815.03
2019-03-26T02:26:49.625Z,815.04
2019-03-26T02:27:49.631Z,815.04
2019-03-26T02:28:49.635Z,815.02
2019-03-26T02:29:49.641Z,815.06
2019-03-26T02:30:49.643Z,815.04
2019-03-26T02:31:49.648Z,815.01
2019-03-26T02:32:49.646Z,814.97
2019-03-26T02:33:49.649Z,814.87
2019-03-26T02:34:49.772Z,814.87
2019-03-26T02:35:49.660Z,814.85
2019-03-26T02:36:49.666Z,814.88
2019-03-26T02:37:49.669Z,814.99
2019-03-26T02:38:49.666Z,814.97
2019-03-26T02:39:49.675Z,814.97
2019-03-26T02:40:49.681Z,814.97
2019-03-26T02:41:49.680Z,814.96
2019-03-26T02:42:49.682Z,814.97
2019-03-26T02:43:49.684Z,814.93
2019-03-26T02:44:49.689Z,814.89
2019-03-26T02:45:49.696Z,814.85
2019-03-26T02:46:49.694Z,814.86
2019-03-26T02:47:49.703Z,814.93
2019-03-26T02:48:49.702Z,814.95
2019-03-26T02:49:49.708Z,814.95
2019-03-26T02:50:49.708Z,815.02
2019-03-26T02:51:49.710Z,815.06
2019-03-26T02:52:49.714Z,815.08
2019-03-26T02:53:49.720Z,815.05
2019-03-26T02:54:49.720Z,815.10
2019-03-26T02:55:49.727Z,815.08
2019-03-26T02:56:49.741Z,815.01
2019-03-26T02:57:49.733Z,815.02
2019-03-26T02:58:49.741Z,814.99
2019-03-26T02:59:49.744Z,814.93
2019-03-26T03:00:49.746Z,814.91
2019-03-26T03:01:49.750Z,814.89
2019-03-26T03:02:49.756Z,814.90
2019-03-26T03:03:49.757Z,814.95
2019-03-26T03:04:49.759Z,814.99
2019-03-26T03:05:49.758Z,815.03
2019-03-26T03:06:49.768Z,815.04
2019-03-26T03:07:49.766Z,815.03
2019-03-26T03:08:49.773Z,815.04
2019-03-26T03:09:49.784Z,815.04
2019-03-26T03:10:49.779Z,815.03
2019-03-26T03:11:49.777Z,815.05
2019-03-26T03:12:49.780Z,815.01
2019-03-26T03:13:49.787Z,815.04
2019-03-26T03:14:49.792Z,815.02
2019-03-26T03:15:49.798Z,814.99
2019-03-26T03:16:49.801Z,815.00
2019-03-26T03:17:49.809Z,814.97
2019-03-26T03:18:49.803Z,815.00
2019-03-26T03:19:49.809Z,814.99
2019-03-26T03:20:49.811Z,815.03
2019-03-26T03:21:49.811Z,815.04
2019-03-26T03:22:49.822Z,815.05
2019-03-26T03:23:49.817Z,815.05
2019-03-26T03:24:49.835Z,815.08
2019-03-26T03:25:49.828Z,815.05
2019-03-26T03:26:49.837Z,815.04
2019-03-26T03:27:49.831Z,815.14
2019-03-26T03:28:49.836Z,815.15
2019-03-26T03:29:49.839Z,815.15
2019-03-26T03:30:49.841Z,815.12
2019-03-26T03:31:49.896Z,815.10
2019-03-26T03:32:49.851Z,815.09
2019-03-26T03:33:49.858Z,815.11
2019-03-26T03:34:49.858Z,815.10
2019-03-26T03:35:52.787Z,815.02
2019-03-26T03:36:49.862Z,815.01
2019-03-26T03:37:49.880Z,815.00
2019-03-26T03:38:49.866Z,815.03
2019-03-26T03:39:49.874Z,815.07
2019-03-26T03:40:49.886Z,815.07
2019-03-26T03:41:49.876Z,815.01
2019-03-26T03:42:49.883Z,815.07
2019-03-26T03:43:49.890Z,815.07
2019-03-26T03:44:49.888Z,815.07
2019-03-26T03:45:49.890Z,815.09
2019-03-26T03:46:49.901Z,815.10
2019-03-26T03:47:49.902Z,815.07
2019-03-26T03:48:49.902Z,815.06
2019-03-26T03:49:49.909Z,815.04
2019-03-26T03:50:49.918Z,815.04
2019-03-26T03:51:49.912Z,815.03
2019-03-26T03:52:49.953Z,815.04
2019-03-26T03:53:49.921Z,815.07
2019-03-26T03:54:49.922Z,815.09
2019-03-26T03:55:49.928Z,815.05
2019-03-26T03:56:49.928Z,815.01
2019-03-26T03:57:52.823Z,815.00
2019-03-26T03:58:49.938Z,814.99
2019-03-26T03:59:49.941Z,814.96
2019-03-26T04:00:49.948Z,814.95
2019-03-26T04:01:49.954Z,814.94
2019-03-26T04:02:49.954Z,814.97
2019-03-26T04:03:49.951Z,815.00
2019-03-26T04:04:49.954Z,815.05
2019-03-26T04:05:49.960Z,815.02
2019-03-26T04:06:49.964Z,815.02
2019-03-26T04:07:49.966Z,815.02
2019-03-26T04:08:49.965Z,814.93
2019-03-26T04:09:49.970Z,814.91
2019-03-26T04:10:49.970Z,814.92
2019-03-26T04:11:49.979Z,814.92
2019-03-26T04:12:49.978Z,814.89
2019-03-26T04:13:49.986Z,814.86
2019-03-26T04:14:49.986Z,814.86
2019-03-26T04:15:50.015Z,814.81
2019-03-26T04:16:49.994Z,814.79
2019-03-26T04:17:50.000Z,814.79
2019-03-26T04:18:50.016Z,814.80
2019-03-26T04:19:49.999Z,814.85
2019-03-26T04:20:50.002Z,814.85
2019-03-26T04:21:50.004Z,814.87
2019-03-26T04:22:50.014Z,814.82
2019-03-26T04:23:50.013Z,814.84
2019-03-26T04:24:50.027Z,814.82
2019-03-26T04:25:50.024Z,814.78
2019-03-26T04:26:50.018Z,814.78
2019-03-26T04:27:50.022Z,814.79
2019-03-26T04:28:50.043Z,814.76
2019-03-26T04:29:50.030Z,814.78
2019-03-26T04:30:50.032Z,814.84
2019-03-26T04:31:50.037Z,814.84
2019-03-26T04:32:50.041Z,814.78
2019-03-26T04:33:50.038Z,814.78
2019-03-26T04:34:50.047Z,814.74
2019-03-26T04:35:50.047Z,814.72
2019-03-26T04:36:50.056Z,814.71
2019-03-26T04:37:50.055Z,814.74
2019-03-26T04:38:50.056Z,814.72
2019-03-26T04:39:50.061Z,814.74
2019-03-26T04:40:50.058Z,814.81
2019-03-26T04:41:50.064Z,814.76
2019-03-26T04:42:50.066Z,814.82
2019-03-26T04:43:50.070Z,814.80
2019-03-26T04:44:50.075Z,814.85
2019-03-26T04:45:50.069Z,814.85
2019-03-26T04:46:50.072Z,814.86
2019-03-26T04:47:50.077Z,814.87
2019-03-26T04:48:50.080Z,814.84
2019-03-26T04:49:50.080Z,814.87
2019-03-26T04:50:50.083Z,814.89
2019-03-26T04:51:50.090Z,814.87
2019-03-26T04:52:50.089Z,814.86
2019-03-26T04:53:50.095Z,814.82
2019-03-26T04:54:50.095Z,814.85
2019-03-26T04:55:50.102Z,814.85
2019-03-26T04:56:50.099Z,814.89
2019-03-26T04:57:50.110Z,814.89
2019-03-26T04:58:50.112Z,814.94
2019-03-26T04:59:50.108Z,814.94
2019-03-26T05:00:50.112Z,814.97
2019-03-26T05:01:50.119Z,815.02
2019-03-26T05:02:50.118Z,815.02
2019-03-26T05:03:50.122Z,815.00
2019-03-26T05:04:50.127Z,815.02
2019-03-26T05:05:50.125Z,815.01
2019-03-26T05:06:50.130Z,814.99
2019-03-26T05:07:50.130Z,814.99
2019-03-26T05:08:50.137Z,815.03
2019-03-26T05:09:50.141Z,815.09
2019-03-26T05:10:50.141Z,815.09
2019-03-26T05:11:50.145Z,815.09
2019-03-26T05:12:50.147Z,815.07
2019-03-26T05:13:50.147Z,815.08
2019-03-26T05:14:50.152Z,815.08
2019-03-26T05:15:50.152Z,815.10
2019-03-26T05:16:50.159Z,815.11
2019-03-26T05:17:50.163Z,815.17
2019-03-26T05:18:50.165Z,815.21
2019-03-26T05:19:50.168Z,815.17
2019-03-26T05:20:50.165Z,815.23
2019-03-26T05:21:50.170Z,815.18
2019-03-26T05:22:50.171Z,815.16
2019-03-26T05:23:51.876Z,815.18
2019-03-26T05:24:50.180Z,815.25
2019-03-26T05:25:50.182Z,815.23
2019-03-26T05:26:50.182Z,815.22
2019-03-26T05:27:50.185Z,815.26
2019-03-26T05:28:50.187Z,815.23
2019-03-26T05:29:50.191Z,815.28
2019-03-26T05:30:50.194Z,815.23
2019-03-26T05:31:50.196Z,815.23
2019-03-26T05:32:50.200Z,815.29
2019-03-26T05:33:50.204Z,815.27
2019-03-26T05:34:50.205Z,815.23
2019-03-26T05:35:51.584Z,815.30
2019-03-26T05:36:51.517Z,815.32
2019-03-26T05:37:50.217Z,815.36
2019-03-26T05:38:50.220Z,815.34
2019-03-26T05:39:50.223Z,815.33
2019-03-26T05:40:50.229Z,815.32
2019-03-26T05:41:50.229Z,815.37
2019-03-26T05:42:50.235Z,815.39
2019-03-26T05:43:50.229Z,815.38
2019-03-26T05:44:50.236Z,815.39
2019-03-26T05:45:50.241Z,815.36
2019-03-26T05:46:50.253Z,815.39
2019-03-26T05:47:50.247Z,815.42
2019-03-26T05:48:50.249Z,815.41
2019-03-26T05:49:50.255Z,815.39
2019-03-26T05:50:50.255Z,815.39
2019-03-26T05:51:50.252Z,815.36
2019-03-26T05:52:50.260Z,815.40
2019-03-26T05:53:50.262Z,815.37
2019-03-26T05:54:50.265Z,815.42
2019-03-26T05:55:50.267Z,815.40
2019-03-26T05:56:50.278Z,815.43
2019-03-26T05:57:50.273Z,815.44
2019-03-26T05:58:50.271Z,815.37
2019-03-26T05:59:50.280Z,815.41
2019-03-26T06:00:50.282Z,815.34
2019-03-26T06:01:50.282Z,815.38
2019-03-26T06:02:50.284Z,815.45
2019-03-26T06:03:50.288Z,815.42
2019-03-26T06:04:50.290Z,815.39
2019-03-26T06:05:50.292Z,815.42
2019-03-26T06:06:50.297Z,815.40
2019-03-26T06:07:50.296Z,815.42
2019-03-26T06:08:50.303Z,815.43
2019-03-26T06:09:50.303Z,815.47
2019-03-26T06:10:50.306Z,815.47
2019-03-26T06:11:50.307Z,815.49
2019-03-26T06:12:50.504Z,815.47
2019-03-26T06:13:50.316Z,815.50
2019-03-26T06:14:50.320Z,815.53
2019-03-26T06:15:50.323Z,815.53
2019-03-26T06:16:50.330Z,815.51
2019-03-26T06:17:50.327Z,815.51
2019-03-26T06:18:50.330Z,815.51
2019-03-26T06:19:50.335Z,815.51
2019-03-26T06:20:50.340Z,815.51
2019-03-26T06:21:50.339Z,815.53
2019-03-26T06:22:50.338Z,815.56
2019-03-26T06:23:53.461Z,815.57
2019-03-26T06:24:50.347Z,815.56
2019-03-26T06:25:50.352Z,815.58
2019-03-26T06:26:50.349Z,815.60
2019-03-26T06:27:50.355Z,815.61
2019-03-26T06:28:50.357Z,815.63
2019-03-26T06:29:50.362Z,815.67
2019-03-26T06:30:50.361Z,815.61
2019-03-26T06:31:50.366Z,815.61
2019-03-26T06:32:50.365Z,815.66
2019-03-26T06:33:50.367Z,815.66
2019-03-26T06:34:50.370Z,815.69
2019-03-26T06:35:50.377Z,815.71
2019-03-26T06:36:50.381Z,815.73
2019-03-26T06:37:50.379Z,815.74
2019-03-26T06:38:50.385Z,815.76
2019-03-26T06:39:50.387Z,815.75
2019-03-26T06:40:50.391Z,815.73
2019-03-26T06:41:50.391Z,815.78
2019-03-26T06:42:50.396Z,815.79
2019-03-26T06:43:50.399Z,815.78
2019-03-26T06:44:50.403Z,815.84
2019-03-26T06:45:50.405Z,815.78
2019-03-26T06:46:50.411Z,815.82
2019-03-26T06:47:50.411Z,815.82
2019-03-26T06:48:50.411Z,815.81
2019-03-26T06:49:50.413Z,815.79
2019-03-26T06:50:50.420Z,815.87
2019-03-26T06:51:50.426Z,815.85
2019-03-26T06:52:50.426Z,815.90
2019-03-26T06:53:50.429Z,815.88
2019-03-26T06:54:51.902Z,815.92
2019-03-26T06:55:50.431Z,815.92
2019-03-26T06:56:50.438Z,815.88
2019-03-26T06:57:50.442Z,815.89
2019-03-26T06:58:50.441Z,815.84
2019-03-26T06:59:50.451Z,815.78
2019-03-26T07:00:50.458Z,815.83
2019-03-26T07:01:50.453Z,815.85
2019-03-26T07:02:50.461Z,815.91
2019-03-26T07:03:50.459Z,815.94
2019-03-26T07:04:50.465Z,815.95
2019-03-26T07:05:50.469Z,815.93
2019-03-26T07:06:50.490Z,815.95
2019-03-26T07:07:50.472Z,815.93
2019-03-26T07:08:50.478Z,815.91
2019-03-26T07:09:50.484Z,815.93
2019-03-26T07:10:50.483Z,815.98
2019-03-26T07:11:50.490Z,815.92
2019-03-26T07:12:50.494Z,815.92
2019-03-26T07:13:50.496Z,815.94
2019-03-26T07:14:50.500Z,815.94
2019-03-26T07:15:50.504Z,816.01
2019-03-26T07:16:50.503Z,815.97
2019-03-26T07:17:52.423Z,815.96
2019-03-26T07:18:50.514Z,815.98
2019-03-26T07:19:50.517Z,815.98
2019-03-26T07:20:50.520Z,816.03
2019-03-26T07:21:50.593Z,816.01
2019-03-26T07:22:50.528Z,816.02
2019-03-26T07:23:50.534Z,816.01
2019-03-26T07:24:50.533Z,816.03
2019-03-26T07:25:50.539Z,816.04
2019-03-26T07:26:50.541Z,816.03
2019-03-26T07:27:50.544Z,816.00
2019-03-26T07:28:50.547Z,815.97
2019-03-26T07:29:50.553Z,816.06
2019-03-26T07:30:50.556Z,816.02
2019-03-26T07:31:50.558Z,816.03
2019-03-26T07:32:50.562Z,816.01
2019-03-26T07:33:50.569Z,816.01
2019-03-26T07:34:50.570Z,816.01
2019-03-26T07:35:50.574Z,816.06
2019-03-26T07:36:50.580Z,816.03
2019-03-26T07:37:50.582Z,816.03
2019-03-26T07:38:50.585Z,816.07
2019-03-26T07:39:50.596Z,816.06
2019-03-26T07:40:50.604Z,816.08
2019-03-26T07:41:50.600Z,816.05
2019-03-26T07:42:50.603Z,816.07
2019-03-26T07:43:50.610Z,816.10
2019-03-26T07:44:50.610Z,816.12
2019-03-26T07:45:50.614Z,816.11
2019-03-26T07:46:50.621Z,816.10
2019-03-26T07:47:50.624Z,816.10
2019-03-26T07:48:50.630Z,816.12
2019-03-26T07:49:50.631Z,816.14
2019-03-26T07:50:50.631Z,816.20
2019-03-26T07:51:50.635Z,816.12
2019-03-26T07:52:50.641Z,816.15
2019-03-26T07:53:50.652Z,816.12
2019-03-26T07:54:50.650Z,816.15
2019-03-26T07:55:50.653Z,816.20
2019-03-26T07:56:50.658Z,816.20
2019-03-26T07:57:50.664Z,816.20
2019-03-26T07:58:50.665Z,816.19
2019-03-26T07:59:50.671Z,816.14
2019-03-26T08:00:50.671Z,816.14
2019-03-26T08:01:50.677Z,816.12
2019-03-26T08:02:50.685Z,816.23
2019-03-26T08:03:50.685Z,816.24
2019-03-26T08:04:50.686Z,816.21
2019-03-26T08:05:50.696Z,816.17
2019-03-26T08:06:50.699Z,816.19
2019-03-26T08:07:58.135Z,816.20
2019-03-26T08:08:50.709Z,816.22
2019-03-26T08:09:50.711Z,816.23
2019-03-26T08:10:50.728Z,816.25
2019-03-26T08:11:50.716Z,816.25
2019-03-26T08:12:50.721Z,816.24
2019-03-26T08:13:50.748Z,816.28
2019-03-26T08:14:50.744Z,816.25
2019-03-26T08:15:50.758Z,816.28
2019-03-26T08:16:50.737Z,816.30
2019-03-26T08:17:50.738Z,816.23
2019-03-26T08:18:50.742Z,816.25
2019-03-26T08:19:50.743Z,816.28
2019-03-26T08:20:50.750Z,816.35
2019-03-26T08:21:50.756Z,816.33
2019-03-26T08:22:50.755Z,816.33
2019-03-26T08:23:50.765Z,816.28
2019-03-26T08:24:50.770Z,816.29
2019-03-26T08:25:50.766Z,816.30
2019-03-26T08:26:52.176Z,816.35
2019-03-26T08:27:50.773Z,816.37
2019-03-26T08:28:50.782Z,816.41
2019-03-26T08:29:50.786Z,816.37
2019-03-26T08:30:50.811Z,816.33
2019-03-26T08:31:50.790Z,816.34
2019-03-26T08:32:50.804Z,816.32
2019-03-26T08:33:50.796Z,816.34
2019-03-26T08:34:50.800Z,816.30
2019-03-26T08:35:50.804Z,816.32
2019-03-26T08:36:50.808Z,816.36
2019-03-26T08:37:50.818Z,816.37
2019-03-26T08:38:50.820Z,816.36
2019-03-26T08:39:50.827Z,816.39
2019-03-26T08:40:50.825Z,816.38
2019-03-26T08:41:50.829Z,816.33
2019-03-26T08:42:50.831Z,816.34
2019-03-26T08:43:50.836Z,816.34
2019-03-26T08:44:50.844Z,816.36
2019-03-26T08:45:50.851Z,816.34
2019-03-26T08:46:50.853Z,816.39
2019-03-26T08:47:50.859Z,816.42
2019-03-26T08:48:50.914Z,816.46
2019-03-26T08:49:50.862Z,816.45
2019-03-26T08:50:50.869Z,816.45
2019-03-26T08:51:50.885Z,816.51
2019-03-26T08:52:50.879Z,816.46
2019-03-26T08:53:50.889Z,816.46
2019-03-26T08:54:50.887Z,816.47
2019-03-26T08:55:50.889Z,816.47
2019-03-26T08:56:50.901Z,816.46
2019-03-26T08:57:50.897Z,816.47
2019-03-26T08:58:50.901Z,816.47
2019-03-26T08:59:50.905Z,816.52
2019-03-26T09:00:50.914Z,816.51
2019-03-26T09:01:50.915Z,816.53
2019-03-26T09:02:50.920Z,816.48
2019-03-26T09:03:50.930Z,816.48
2019-03-26T09:04:50.934Z,816.47
2019-03-26T09:05:50.942Z,816.49
2019-03-26T09:06:50.937Z,816.54
2019-03-26T09:07:50.947Z,816.54
2019-03-26T09:08:50.951Z,816.60
2019-03-26T09:09:50.956Z,816.56
2019-03-26T09:10:51.974Z,816.54
2019-03-26T09:11:50.962Z,816.54
2019-03-26T09:12:50.968Z,816.57
2019-03-26T09:13:50.974Z,816.60
2019-03-26T09:14:50.976Z,816.60
2019-03-26T09:15:50.980Z,816.59
2019-03-26T09:16:50.985Z,816.56
2019-03-26T09:17:50.993Z,816.63
2019-03-26T09:18:50.998Z,816.55
2019-03-26T09:19:51.002Z,816.58
2019-03-26T09:20:51.005Z,816.62
2019-03-26T09:21:51.010Z,816.58
2019-03-26T09:22:51.017Z,816.61
2019-03-26T09:23:51.022Z,816.56
2019-03-26T09:24:51.027Z,816.58
2019-03-26T09:25:51.031Z,816.64
2019-03-26T09:26:51.037Z,816.62
2019-03-26T09:27:52.502Z,816.66
2019-03-26T09:28:51.044Z,816.66
2019-03-26T09:29:51.049Z,816.63
2019-03-26T09:30:51.055Z,816.66
2019-03-26T09:31:51.060Z,816.67
2019-03-26T09:32:51.063Z,816.67
2019-03-26T09:33:51.071Z,816.68
2019-03-26T09:34:51.074Z,816.71
2019-03-26T09:35:51.081Z,816.68
2019-03-26T09:36:51.087Z,816.66
2019-03-26T09:37:51.087Z,816.71
2019-03-26T09:38:51.104Z,816.76
2019-03-26T09:39:51.191Z,816.80
2019-03-26T09:40:51.104Z,816.86
2019-03-26T09:41:51.108Z,816.79
2019-03-26T09:42:51.117Z,816.86
2019-03-26T09:43:51.122Z,816.91
2019-03-26T09:44:51.127Z,816.89
2019-03-26T09:45:51.130Z,816.87
2019-03-26T09:46:51.136Z,816.96
2019-03-26T09:47:51.142Z,816.94
2019-03-26T09:48:51.150Z,816.93
2019-03-26T09:49:51.152Z,816.99
2019-03-26T09:50:51.163Z,816.97
2019-03-26T09:51:51.163Z,817.00
2019-03-26T09:52:51.172Z,816.94
2019-03-26T09:53:51.181Z,816.94
2019-03-26T09:54:51.183Z,816.84
2019-03-26T09:55:51.189Z,816.68
2019-03-26T09:56:51.192Z,816.83
2019-03-26T09:57:51.204Z,816.93
2019-03-26T09:58:51.205Z,816.92
2019-03-26T09:59:51.209Z,816.93
2019-03-26T10:00:51.313Z,816.92
2019-03-26T10:01:51.221Z,816.97
2019-03-26T10:02:51.227Z,816.92
2019-03-26T10:03:51.232Z,816.95
2019-03-26T10:04:51.238Z,816.92
2019-03-26T10:05:51.248Z,816.96
2019-03-26T10:06:51.257Z,816.91
2019-03-26T10:07:51.256Z,816.92
2019-03-26T10:08:52.655Z,816.82
2019-03-26T10:09:51.273Z,816.96
2019-03-26T10:10:51.296Z,817.00
2019-03-26T10:11:51.280Z,817.01
2019-03-26T10:12:51.294Z,817.06
2019-03-26T10:13:51.292Z,816.99
2019-03-26T10:14:51.299Z,817.04
2019-03-26T10:15:51.307Z,816.98
2019-03-26T10:16:51.309Z,817.04
2019-03-26T10:17:51.315Z,817.08
2019-03-26T10:18:51.328Z,817.09
2019-03-26T10:19:51.331Z,817.02
2019-03-26T10:20:51.336Z,817.06
2019-03-26T10:21:51.338Z,817.14
2019-03-26T10:22:51.348Z,817.08
2019-03-26T10:23:51.354Z,817.12
2019-03-26T10:24:51.356Z,817.14
2019-03-26T10:25:51.367Z,817.10
2019-03-26T10:26:51.371Z,817.03
2019-03-26T10:27:51.376Z,817.05
2019-03-26T10:28:51.384Z,817.03
2019-03-26T10:29:51.390Z,817.07
2019-03-26T10:30:51.394Z,817.09
2019-03-26T10:31:51.395Z,817.04
2019-03-26T10:32:51.402Z,817.02
2019-03-26T10:33:51.412Z,817.06
2019-03-26T10:34:51.417Z,817.15
2019-03-26T10:35:51.426Z,817.10
2019-03-26T10:36:51.429Z,817.12
2019-03-26T10:37:51.434Z,817.08
2019-03-26T10:39:05.018Z,817.12
2019-03-26T10:39:51.445Z,817.10
2019-03-26T10:40:51.450Z,817.13
2019-03-26T10:41:51.458Z,817.05
2019-03-26T10:42:51.467Z,817.10
2019-03-26T10:43:51.471Z,817.13
2019-03-26T10:44:51.477Z,817.12
2019-03-26T10:45:51.485Z,817.16
2019-03-26T10:46:51.491Z,817.17
2019-03-26T10:47:51.494Z,817.14
2019-03-26T10:48:51.504Z,817.18
2019-03-26T10:49:51.511Z,817.16
2019-03-26T10:50:51.515Z,817.26
2019-03-26T10:51:51.527Z,817.27
2019-03-26T10:52:51.530Z,817.28
2019-03-26T10:53:51.535Z,817.29
2019-03-26T10:54:51.541Z,817.26
2019-03-26T10:55:51.550Z,817.22
2019-03-26T10:56:51.555Z,817.23
2019-03-26T10:57:51.560Z,817.18
2019-03-26T10:58:51.570Z,817.26
2019-03-26T10:59:51.574Z,817.20
2019-03-26T11:00:51.583Z,817.23
2019-03-26T11:01:51.592Z,817.27
2019-03-26T11:02:54.084Z,817.29
2019-03-26T11:03:51.607Z,817.30
2019-03-26T11:04:51.607Z,817.23
2019-03-26T11:05:51.613Z,817.25
2019-03-26T11:06:51.621Z,817.25
2019-03-26T11:07:51.628Z,817.27
2019-03-26T11:08:51.633Z,817.24
2019-03-26T11:09:51.643Z,817.23
2019-03-26T11:10:51.649Z,817.25
2019-03-26T11:11:51.656Z,817.31
2019-03-26T11:12:51.665Z,817.27
2019-03-26T11:13:51.666Z,817.29
2019-03-26T11:14:51.672Z,817.26
2019-03-26T11:15:51.682Z,817.26
2019-03-26T11:16:51.687Z,817.24
2019-03-26T11:17:51.698Z,817.25
2019-03-26T11:18:51.703Z,817.22
2019-03-26T11:19:51.707Z,817.19
2019-03-26T11:21:01.950Z,817.20
2019-03-26T11:21:51.722Z,817.19
2019-03-26T11:22:51.731Z,817.08
2019-03-26T11:23:51.737Z,817.08
2019-03-26T11:24:51.745Z,817.14
2019-03-26T11:25:51.750Z,817.22
2019-03-26T11:26:51.761Z,817.21
2019-03-26T11:27:51.767Z,817.24
2019-03-26T11:28:51.771Z,817.30
2019-03-26T11:29:51.780Z,817.28
2019-03-26T11:30:51.791Z,817.18
2019-03-26T11:31:51.800Z,817.23
2019-03-26T11:32:51.804Z,817.11
2019-03-26T11:33:51.815Z,817.14
2019-03-26T11:34:51.819Z,817.24
2019-03-26T11:35:51.829Z,817.17
2019-03-26T11:36:51.835Z,817.18
2019-03-26T11:37:51.845Z,817.28
2019-03-26T11:38:51.851Z,817.19
2019-03-26T11:39:51.855Z,817.20
2019-03-26T11:40:51.867Z,817.18
2019-03-26T11:41:51.868Z,817.24
2019-03-26T11:42:51.885Z,817.27
2019-03-26T11:43:51.882Z,817.20
2019-03-26T11:44:51.895Z,817.17
2019-03-26T11:45:51.904Z,817.17
2019-03-26T11:46:51.913Z,817.18
2019-03-26T11:47:51.912Z,817.21
2019-03-26T11:48:51.922Z,817.22
2019-03-26T11:49:51.926Z,817.24
2019-03-26T11:50:51.936Z,817.24
2019-03-26T11:51:51.944Z,817.28
2019-03-26T11:52:51.952Z,817.28
2019-03-26T11:53:51.957Z,817.31
2019-03-26T11:54:51.963Z,817.30
2019-03-26T11:55:51.975Z,817.27
2019-03-26T11:56:51.987Z,817.30
2019-03-26T11:57:51.991Z,817.32
2019-03-26T11:58:51.993Z,817.28
2019-03-26T11:59:52.001Z,817.28
2019-03-26T12:00:52.011Z,817.24
2019-03-26T12:01:52.557Z,817.30
2019-03-26T12:02:52.026Z,817.30
2019-03-26T12:03:52.036Z,817.28
2019-03-26T12:04:52.043Z,817.23
2019-03-26T12:05:52.051Z,817.30
2019-03-26T12:06:52.057Z,817.30
2019-03-26T12:07:52.070Z,817.35
2019-03-26T12:08:52.076Z,817.34
2019-03-26T12:09:52.078Z,817.40
2019-03-26T12:10:52.086Z,817.32
2019-03-26T12:11:52.100Z,817.31
2019-03-26T12:12:52.100Z,817.29
2019-03-26T12:13:52.109Z,817.26
2019-03-26T12:14:52.119Z,817.17
2019-03-26T12:15:52.126Z,817.29
2019-03-26T12:16:52.137Z,817.26
2019-03-26T12:17:52.144Z,817.30
2019-03-26T12:18:52.156Z,817.27
2019-03-26T12:19:52.165Z,817.28
2019-03-26T12:20:52.167Z,817.33
2019-03-26T12:21:52.177Z,817.30
2019-03-26T12:22:52.183Z,817.23
2019-03-26T12:23:52.196Z,817.30
2019-03-26T12:24:52.202Z,817.23
2019-03-26T12:25:52.219Z,817.22
2019-03-26T12:26:52.218Z,817.24
2019-03-26T12:27:52.223Z,817.20
2019-03-26T12:28:52.246Z,817.20